createdAt,value
2023-05-21T04:14:51.388Z,21.03
2023-05-21T04:15:51.361Z,21.11
2023-05-21T04:16:51.352Z,21.01
2023-05-21T04:17:51.357Z,21.08
2023-05-21T04:18:51.380Z,21.09
2023-05-21T04:19:51.321Z,21.12
2023-05-21T04:20:51.293Z,21.19
2023-05-21T04:21:51.309Z,21.19
2023-05-21T04:22:51.289Z,21.21
2023-05-21T04:23:51.295Z,21.16
2023-05-21T04:24:51.280Z,21.18
2023-05-21T04:25:51.344Z,21.31
2023-05-21T04:26:51.313Z,21.25
2023-05-21T04:27:51.279Z,21.23
2023-05-21T04:28:51.272Z,21.25
2023-05-21T04:29:51.249Z,21.27
2023-05-21T04:30:51.325Z,21.31
2023-05-21T04:31:51.448Z,21.37
2023-05-21T04:32:51.254Z,21.37
2023-05-21T04:33:51.234Z,21.40
2023-05-21T04:34:51.270Z,21.38
2023-05-21T04:35:51.254Z,21.48
2023-05-21T04:36:51.248Z,21.49
2023-05-21T04:37:51.216Z,21.52
2023-05-21T04:38:51.211Z,21.53
2023-05-21T04:39:51.218Z,21.49
2023-05-21T04:40:51.237Z,21.64
2023-05-21T04:41:51.207Z,21.62
2023-05-21T04:42:51.243Z,21.68
2023-05-21T04:43:51.194Z,21.61
2023-05-21T04:44:51.214Z,21.64
2023-05-21T04:45:51.191Z,21.71
2023-05-21T04:46:51.237Z,21.73
2023-05-21T04:47:51.287Z,21.73
2023-05-21T04:48:51.180Z,21.74
2023-05-21T04:49:51.180Z,21.71
2023-05-21T04:50:51.184Z,21.82
2023-05-21T04:51:51.193Z,21.78
2023-05-21T04:52:51.162Z,21.83
2023-05-21T04:53:51.167Z,21.89
2023-05-21T04:54:51.168Z,21.89
2023-05-21T04:55:51.159Z,21.90
2023-05-21T04:56:51.168Z,21.97
2023-05-21T04:57:51.157Z,21.94
2023-05-21T04:58:51.144Z,21.92
2023-05-21T04:59:51.156Z,21.94
2023-05-21T05:00:51.288Z,22.00
2023-05-21T05:01:51.195Z,22.09
2023-05-21T05:02:51.242Z,22.05
2023-05-21T05:03:51.151Z,22.08
2023-05-21T05:04:51.148Z,22.07
2023-05-21T05:05:51.131Z,22.09
2023-05-21T05:06:51.132Z,22.08
2023-05-21T05:07:51.114Z,22.07
2023-05-21T05:08:51.113Z,22.12
2023-05-21T05:09:51.112Z,22.20
2023-05-21T05:10:51.117Z,22.20
2023-05-21T05:11:51.114Z,22.24
2023-05-21T05:12:51.094Z,22.29
2023-05-21T05:13:51.098Z,22.27
2023-05-21T05:14:51.103Z,22.24
2023-05-21T05:15:52.572Z,22.30
2023-05-21T05:16:51.243Z,22.22
2023-05-21T05:17:51.156Z,22.38
2023-05-21T05:18:51.189Z,22.34
2023-05-21T05:19:51.075Z,22.33
2023-05-21T05:20:51.119Z,22.39
2023-05-21T05:21:51.080Z,22.34
2023-05-21T05:22:51.069Z,22.38
2023-05-21T05:23:51.070Z,22.45
2023-05-21T05:24:51.068Z,22.45
2023-05-21T05:25:51.063Z,22.54
2023-05-21T05:26:51.080Z,22.45
2023-05-21T05:27:51.079Z,22.60
2023-05-21T05:28:51.066Z,22.52
2023-05-21T05:29:51.068Z,22.61
2023-05-21T05:30:51.066Z,22.61
2023-05-21T05:31:51.045Z,22.63
2023-05-21T05:32:51.096Z,22.57
2023-05-21T05:33:51.044Z,22.66
2023-05-21T05:34:51.058Z,22.69
2023-05-21T05:35:51.032Z,22.71
2023-05-21T05:36:51.036Z,22.70
2023-05-21T05:37:51.041Z,22.76
2023-05-21T05:38:51.102Z,22.69
2023-05-21T05:39:51.045Z,22.85
2023-05-21T05:40:51.047Z,22.85
2023-05-21T05:41:51.021Z,22.79
2023-05-21T05:42:51.016Z,22.89
2023-05-21T05:43:51.022Z,22.84
2023-05-21T05:44:51.006Z,22.89
2023-05-21T05:45:51.025Z,22.88
2023-05-21T05:46:51.011Z,23.00
2023-05-21T05:47:51.093Z,22.92
2023-05-21T05:48:51.009Z,23.06
2023-05-21T05:49:51.006Z,23.06
2023-05-21T05:50:51.033Z,23.06
2023-05-21T05:51:50.996Z,23.04
2023-05-21T05:52:50.983Z,23.07
2023-05-21T05:53:51.024Z,23.03
2023-05-21T05:54:51.001Z,23.06
2023-05-21T05:55:50.982Z,23.10
2023-05-21T05:56:50.984Z,23.07
2023-05-21T05:57:50.975Z,23.07
2023-05-21T05:58:50.967Z,23.01
2023-05-21T05:59:50.983Z,23.07
2023-05-21T06:00:50.969Z,23.09
2023-05-21T06:01:50.986Z,23.19
2023-05-21T06:02:51.094Z,23.10
2023-05-21T06:03:51.059Z,23.04
2023-05-21T06:04:50.967Z,23.09
2023-05-21T06:05:50.985Z,23.12
2023-05-21T06:06:51.049Z,23.09
2023-05-21T06:07:50.957Z,23.14
2023-05-21T06:08:50.975Z,23.16
2023-05-21T06:09:50.951Z,23.19
2023-05-21T06:10:50.964Z,23.22
2023-05-21T06:11:50.951Z,23.25
2023-05-21T06:12:50.951Z,23.25
2023-05-21T06:13:50.952Z,23.24
2023-05-21T06:14:50.950Z,23.24
2023-05-21T06:15:50.953Z,23.21
2023-05-21T06:16:50.923Z,23.29
2023-05-21T06:17:50.983Z,23.19
2023-05-21T06:18:50.960Z,23.24
2023-05-21T06:19:50.919Z,23.28
2023-05-21T06:20:50.925Z,23.26
2023-05-21T06:21:50.929Z,23.24
2023-05-21T06:22:50.966Z,23.26
2023-05-21T06:23:50.928Z,23.26
2023-05-21T06:24:50.936Z,23.42
2023-05-21T06:25:50.920Z,23.45
2023-05-21T06:26:50.914Z,23.44
2023-05-21T06:27:50.938Z,23.37
2023-05-21T06:28:50.917Z,23.42
2023-05-21T06:29:50.903Z,23.40
2023-05-21T06:30:50.898Z,23.35
2023-05-21T06:31:50.927Z,23.41
2023-05-21T06:32:50.963Z,23.38
2023-05-21T06:33:51.081Z,23.38
2023-05-21T06:34:50.889Z,23.44
2023-05-21T06:35:50.885Z,23.42
2023-05-21T06:36:50.900Z,23.50
2023-05-21T06:37:50.874Z,23.44
2023-05-21T06:38:50.905Z,23.48
2023-05-21T06:39:50.894Z,23.45
2023-05-21T06:40:50.894Z,23.42
2023-05-21T06:41:50.883Z,23.48
2023-05-21T06:42:50.865Z,23.56
2023-05-21T06:43:50.898Z,23.60
2023-05-21T06:44:50.886Z,23.52
2023-05-21T06:45:50.980Z,23.52
2023-05-21T06:46:50.861Z,23.60
2023-05-21T06:47:50.915Z,23.56
2023-05-21T06:48:50.861Z,23.60
2023-05-21T06:49:50.886Z,23.53
2023-05-21T06:50:50.854Z,23.57
2023-05-21T06:51:50.864Z,23.57
2023-05-21T06:52:50.847Z,23.62
2023-05-21T06:53:50.858Z,23.63
2023-05-21T06:54:50.885Z,23.63
2023-05-21T06:55:50.843Z,23.70
2023-05-21T06:56:50.865Z,23.63
2023-05-21T06:57:50.860Z,23.72
2023-05-21T06:58:50.853Z,23.70
2023-05-21T06:59:50.838Z,23.66
2023-05-21T07:00:50.853Z,23.71
2023-05-21T07:01:50.843Z,23.70
2023-05-21T07:02:50.903Z,23.72
2023-05-21T07:03:50.830Z,23.75
2023-05-21T07:04:50.839Z,23.75
2023-05-21T07:05:50.828Z,23.77
2023-05-21T07:06:50.825Z,23.79
2023-05-21T07:07:50.841Z,23.77
2023-05-21T07:08:50.816Z,23.79
2023-05-21T07:09:50.825Z,23.79
2023-05-21T07:10:50.850Z,23.85
2023-05-21T07:11:50.813Z,23.82
2023-05-21T07:12:50.849Z,23.87
2023-05-21T07:13:50.803Z,23.77
2023-05-21T07:14:50.807Z,23.77
2023-05-21T07:15:50.796Z,23.84
2023-05-21T07:16:50.828Z,23.79
2023-05-21T07:17:50.870Z,23.93
2023-05-21T07:18:50.867Z,23.90
2023-05-21T07:19:50.798Z,23.96
2023-05-21T07:20:50.825Z,23.94
2023-05-21T07:21:50.791Z,23.99
2023-05-21T07:22:50.786Z,23.93
2023-05-21T07:23:50.803Z,23.93
2023-05-21T07:24:50.798Z,23.85
2023-05-21T07:25:50.801Z,23.94
2023-05-21T07:26:50.827Z,23.94
2023-05-21T07:27:50.771Z,24.00
2023-05-21T07:28:50.771Z,24.02
2023-05-21T07:29:50.798Z,24.00
2023-05-21T07:30:50.801Z,24.00
2023-05-21T07:31:50.782Z,23.97
2023-05-21T07:32:50.809Z,24.04
2023-05-21T07:33:50.786Z,24.07
2023-05-21T07:34:52.159Z,24.03
2023-05-21T07:35:50.776Z,24.00
2023-05-21T07:36:50.766Z,24.08
2023-05-21T07:37:50.875Z,24.08
2023-05-21T07:38:50.765Z,24.04
2023-05-21T07:39:50.772Z,24.11
2023-05-21T07:40:50.783Z,24.09
2023-05-21T07:41:50.773Z,24.11
2023-05-21T07:42:50.776Z,24.19
2023-05-21T07:43:50.780Z,24.18
2023-05-21T07:44:50.776Z,24.14
2023-05-21T07:45:50.780Z,24.12
2023-05-21T07:46:50.746Z,24.18
2023-05-21T07:47:50.807Z,24.14
2023-05-21T07:48:50.757Z,24.24
2023-05-21T07:49:50.751Z,24.18
2023-05-21T07:50:50.779Z,24.15
2023-05-21T07:51:50.736Z,24.18
2023-05-21T07:52:50.747Z,24.24
2023-05-21T07:53:51.130Z,24.30
2023-05-21T07:54:50.747Z,24.24
2023-05-21T07:55:50.733Z,24.21
2023-05-21T07:56:50.733Z,24.24
2023-05-21T07:57:50.750Z,24.29
2023-05-21T07:58:50.825Z,24.34
2023-05-21T07:59:50.734Z,24.29
2023-05-21T08:00:50.735Z,24.42
2023-05-21T08:01:50.741Z,24.30
2023-05-21T08:02:50.788Z,24.37
2023-05-21T08:03:50.851Z,24.48
2023-05-21T08:04:50.765Z,24.49
2023-05-21T08:05:50.778Z,24.48
2023-05-21T08:06:50.725Z,24.51
2023-05-21T08:07:50.720Z,24.46
2023-05-21T08:08:50.711Z,24.58
2023-05-21T08:09:50.755Z,24.58
2023-05-21T08:10:50.717Z,24.54
2023-05-21T08:11:50.715Z,24.54
2023-05-21T08:12:50.712Z,24.66
2023-05-21T08:13:50.726Z,24.59
2023-05-21T08:14:50.760Z,24.66
2023-05-21T08:15:52.879Z,24.67
2023-05-21T08:16:50.865Z,24.74
2023-05-21T08:17:50.759Z,24.75
2023-05-21T08:18:50.744Z,24.77
2023-05-21T08:19:50.729Z,24.77
2023-05-21T08:20:50.713Z,24.77
2023-05-21T08:21:52.836Z,24.82
2023-05-21T08:22:50.698Z,24.87
2023-05-21T08:23:50.706Z,24.87
2023-05-21T08:24:50.726Z,24.92
2023-05-21T08:25:50.693Z,24.90
2023-05-21T08:26:50.742Z,25.00
2023-05-21T08:27:52.442Z,24.94
2023-05-21T08:28:50.708Z,24.94
2023-05-21T08:29:50.713Z,24.92
2023-05-21T08:30:50.728Z,25.02
2023-05-21T08:31:50.721Z,25.04
2023-05-21T08:32:50.758Z,25.04
2023-05-21T08:33:50.689Z,25.01
2023-05-21T08:34:50.746Z,25.07
2023-05-21T08:35:50.683Z,25.04
2023-05-21T08:36:50.684Z,25.04
2023-05-21T08:37:50.793Z,25.02
2023-05-21T08:38:50.691Z,25.02
2023-05-21T08:39:50.690Z,25.07
2023-05-21T08:40:50.698Z,25.05
2023-05-21T08:41:50.693Z,25.08
2023-05-21T08:42:50.700Z,25.09
2023-05-21T08:43:51.230Z,25.15
2023-05-21T08:44:50.713Z,25.12
2023-05-21T08:45:50.704Z,25.07
2023-05-21T08:46:50.780Z,25.15
2023-05-21T08:47:50.696Z,25.15
2023-05-21T08:48:50.684Z,25.15
2023-05-21T08:49:50.704Z,25.14
2023-05-21T08:50:50.681Z,25.11
2023-05-21T08:51:50.688Z,25.17
2023-05-21T08:52:50.689Z,25.15
2023-05-21T08:53:50.676Z,25.15
2023-05-21T08:54:50.691Z,25.23
2023-05-21T08:55:51.750Z,25.27
2023-05-21T08:56:50.687Z,25.29
2023-05-21T08:57:50.747Z,25.24
2023-05-21T08:58:50.669Z,25.27
2023-05-21T08:59:50.665Z,25.27
2023-05-21T09:00:50.759Z,25.32
2023-05-21T09:01:50.764Z,25.27
2023-05-21T09:02:50.676Z,25.32
2023-05-21T09:03:50.676Z,25.39
2023-05-21T09:04:50.659Z,25.38
2023-05-21T09:05:50.674Z,25.33
2023-05-21T09:06:50.660Z,25.33
2023-05-21T09:07:52.491Z,25.37
2023-05-21T09:08:50.665Z,25.41
2023-05-21T09:09:50.660Z,25.37
2023-05-21T09:10:50.684Z,25.34
2023-05-21T09:11:50.693Z,25.47
2023-05-21T09:12:50.660Z,25.42
2023-05-21T09:13:50.659Z,25.49
2023-05-21T09:14:50.675Z,25.44
2023-05-21T09:15:50.667Z,25.42
2023-05-21T09:16:50.692Z,25.45
2023-05-21T09:17:50.692Z,25.49
2023-05-21T09:18:50.693Z,25.54
2023-05-21T09:19:50.691Z,25.60
2023-05-21T09:20:50.699Z,25.57
2023-05-21T09:21:50.654Z,25.63
2023-05-21T09:22:50.656Z,25.64
2023-05-21T09:23:50.661Z,25.74
2023-05-21T09:24:50.655Z,25.67
2023-05-21T09:25:50.676Z,25.75
2023-05-21T09:26:50.649Z,25.76
2023-05-21T09:27:50.664Z,25.76
2023-05-21T09:28:50.649Z,25.79
2023-05-21T09:29:50.648Z,25.82
2023-05-21T09:30:50.654Z,25.84
2023-05-21T09:31:50.713Z,25.86
2023-05-21T09:32:50.766Z,25.85
2023-05-21T09:33:50.664Z,25.94
2023-05-21T09:34:50.752Z,25.96
2023-05-21T09:35:50.686Z,26.01
2023-05-21T09:36:50.648Z,25.99
2023-05-21T09:37:50.640Z,26.09
2023-05-21T09:38:50.648Z,26.11
2023-05-21T09:39:50.657Z,26.12
2023-05-21T09:40:50.680Z,26.16
2023-05-21T09:41:50.645Z,26.24
2023-05-21T09:42:50.648Z,26.19
2023-05-21T09:43:50.676Z,26.30
2023-05-21T09:44:50.643Z,26.26
2023-05-21T09:45:50.641Z,26.35
2023-05-21T09:46:50.687Z,26.38
2023-05-21T09:47:50.686Z,26.37
2023-05-21T09:48:50.651Z,26.38
2023-05-21T09:49:50.650Z,26.42
2023-05-21T09:50:50.674Z,26.38
2023-05-21T09:51:50.652Z,26.47
2023-05-21T09:52:50.674Z,26.50
2023-05-21T09:53:50.658Z,26.50
2023-05-21T09:54:50.645Z,26.50
2023-05-21T09:55:50.666Z,26.53
2023-05-21T09:56:50.656Z,26.59
2023-05-21T09:57:51.079Z,26.57
2023-05-21T09:58:50.666Z,26.60
2023-05-21T09:59:50.649Z,26.71
2023-05-21T10:00:50.662Z,26.67
2023-05-21T10:01:50.773Z,26.74
2023-05-21T10:02:50.760Z,26.75
2023-05-21T10:03:50.786Z,26.74
2023-05-21T10:04:50.748Z,26.72
2023-05-21T10:05:50.671Z,26.71
2023-05-21T10:06:50.674Z,26.72
2023-05-21T10:07:50.652Z,26.76
2023-05-21T10:08:50.653Z,26.76
2023-05-21T10:09:50.678Z,26.74
2023-05-21T10:10:50.658Z,26.69
2023-05-21T10:11:50.654Z,26.63
2023-05-21T10:12:50.658Z,26.71
2023-05-21T10:13:50.685Z,26.71
2023-05-21T10:14:50.810Z,26.72
2023-05-21T10:15:50.945Z,26.72
2023-05-21T10:16:50.690Z,26.60
2023-05-21T10:17:50.734Z,26.63
2023-05-21T10:29:11.914Z,26.52
2023-05-21T10:30:11.866Z,26.52
2023-05-21T10:31:11.857Z,26.50
2023-05-21T10:32:11.907Z,26.52
2023-05-21T10:33:11.911Z,26.50
2023-05-21T10:34:11.849Z,26.53
2023-05-21T10:35:11.851Z,26.50
2023-05-21T10:36:11.851Z,26.57
2023-05-21T10:37:11.850Z,26.57
2023-05-21T10:38:11.840Z,26.57
2023-05-21T10:39:11.838Z,26.56
2023-05-21T10:40:11.841Z,26.57
2023-05-21T10:41:11.838Z,26.54
2023-05-21T10:42:11.866Z,26.54
2023-05-21T10:43:11.848Z,26.63
2023-05-21T10:44:11.839Z,26.68
2023-05-21T10:45:11.878Z,26.71
2023-05-21T10:46:11.935Z,26.67
2023-05-21T10:47:11.835Z,26.69
2023-05-21T10:48:11.883Z,26.76
2023-05-21T10:49:11.840Z,26.82
2023-05-21T10:50:11.846Z,26.86
2023-05-21T10:51:11.870Z,26.86
2023-05-21T10:52:11.846Z,26.82
2023-05-21T10:53:11.844Z,26.90
2023-05-21T10:54:11.848Z,26.97
2023-05-21T10:55:11.847Z,27.00
2023-05-21T10:56:11.849Z,27.06
2023-05-21T10:57:11.888Z,27.06
2023-05-21T10:58:11.850Z,27.18
2023-05-21T10:59:11.862Z,27.15
2023-05-21T11:00:11.861Z,27.21
2023-05-21T11:01:11.944Z,27.27
2023-05-21T11:02:11.887Z,27.37
2023-05-21T11:03:11.934Z,27.46
2023-05-21T11:04:11.847Z,27.53
2023-05-21T11:05:11.844Z,27.52
2023-05-21T11:06:11.851Z,27.61
2023-05-21T11:07:11.856Z,27.61
2023-05-21T11:08:11.864Z,27.72
2023-05-21T11:09:11.876Z,27.75
2023-05-21T11:10:11.855Z,27.90
2023-05-21T11:11:11.860Z,27.90
2023-05-21T11:12:11.847Z,27.99
2023-05-21T11:13:11.894Z,28.11
2023-05-21T11:14:11.864Z,28.08
2023-05-21T11:15:11.876Z,28.24
2023-05-21T11:16:11.859Z,28.23
2023-05-21T11:17:12.015Z,28.27
2023-05-21T11:18:11.955Z,28.35
2023-05-21T11:19:11.942Z,28.41
2023-05-21T11:20:11.869Z,28.45
2023-05-21T11:21:11.875Z,28.53
2023-05-21T11:22:11.880Z,28.65
2023-05-21T11:23:11.887Z,28.73
2023-05-21T11:24:11.879Z,28.78
2023-05-21T11:25:11.881Z,28.83
2023-05-21T11:26:11.898Z,28.90
2023-05-21T11:27:11.885Z,28.95
2023-05-21T11:28:11.902Z,28.94
2023-05-21T11:29:11.903Z,29.08
2023-05-21T11:30:11.906Z,29.11
2023-05-21T11:31:11.946Z,29.21
2023-05-21T11:32:11.910Z,29.30
2023-05-21T11:33:11.982Z,29.30
2023-05-21T11:34:11.944Z,29.32
2023-05-21T11:35:11.909Z,29.36
2023-05-21T11:36:11.928Z,29.45
2023-05-21T11:37:11.907Z,29.45
2023-05-21T11:38:11.925Z,29.55
2023-05-21T11:39:11.960Z,29.67
2023-05-21T11:40:11.936Z,29.73
2023-05-21T11:41:11.931Z,29.75
2023-05-21T11:42:11.931Z,29.94
2023-05-21T11:43:11.935Z,29.97
2023-05-21T11:44:11.951Z,30.02
2023-05-21T11:45:11.966Z,30.07
2023-05-21T11:46:11.994Z,30.02
2023-05-21T11:47:11.953Z,29.98
2023-05-21T11:48:11.970Z,30.07
2023-05-21T11:49:11.984Z,30.06
2023-05-21T11:51:11.960Z,30.13
2023-05-21T11:52:11.974Z,30.13
2023-05-21T11:53:11.956Z,30.13
2023-05-21T11:54:11.966Z,30.10
2023-05-21T11:55:11.979Z,30.16
2023-05-21T11:56:11.990Z,30.22
2023-05-21T11:57:11.983Z,30.13
2023-05-21T11:58:11.984Z,30.16
2023-05-21T11:59:11.976Z,30.24
2023-05-21T12:00:12.072Z,30.18
2023-05-21T12:01:11.988Z,30.26
2023-05-21T12:02:11.984Z,30.25
2023-05-21T12:03:12.131Z,30.14
2023-05-21T12:04:12.047Z,30.22
2023-05-21T12:05:13.290Z,30.29
2023-05-21T12:06:12.052Z,30.35
2023-05-21T12:07:12.004Z,30.29
2023-05-21T12:08:12.009Z,30.37
2023-05-21T12:09:12.026Z,30.47
2023-05-21T12:10:12.064Z,30.48
2023-05-21T12:11:12.048Z,30.63
2023-05-21T12:12:12.029Z,30.79
2023-05-21T12:13:12.034Z,30.88
2023-05-21T12:14:12.038Z,30.96
2023-05-21T12:15:12.037Z,31.04
2023-05-21T12:16:12.037Z,31.08
2023-05-21T12:17:12.049Z,31.19
2023-05-21T12:18:12.092Z,31.33
2023-05-21T12:19:12.088Z,31.36
2023-05-21T12:20:12.056Z,31.49
2023-05-21T12:21:12.636Z,31.60
2023-05-21T12:22:12.051Z,31.65
2023-05-21T12:23:12.054Z,31.77
2023-05-21T12:24:12.068Z,31.71
2023-05-21T12:25:12.069Z,31.87
2023-05-21T12:26:12.071Z,31.87
2023-05-21T12:27:12.086Z,31.93
2023-05-21T12:28:12.084Z,32.00
2023-05-21T12:29:12.091Z,32.13
2023-05-21T12:30:12.153Z,32.10
2023-05-21T12:31:12.090Z,32.16
2023-05-21T12:32:12.228Z,32.16
2023-05-21T12:33:12.130Z,32.00
2023-05-21T12:34:12.112Z,32.19
2023-05-21T12:35:12.149Z,32.19
2023-05-21T12:36:12.112Z,32.10
2023-05-21T12:37:12.128Z,32.23
2023-05-21T12:38:12.118Z,32.28
2023-05-21T12:39:12.115Z,32.23
2023-05-21T12:40:12.270Z,32.24
2023-05-21T12:41:12.127Z,32.34
2023-05-21T12:42:12.146Z,32.31
2023-05-21T12:43:12.139Z,32.42
2023-05-21T12:44:12.162Z,32.46
2023-05-21T12:45:12.174Z,32.50
2023-05-21T12:46:12.201Z,32.46
2023-05-21T12:47:12.161Z,32.61
2023-05-21T12:48:12.233Z,32.57
2023-05-21T12:49:12.169Z,32.62
2023-05-21T12:50:12.254Z,32.59
2023-05-21T12:51:12.195Z,32.54
2023-05-21T12:52:12.185Z,32.53
2023-05-21T12:53:12.539Z,32.56
2023-05-21T12:54:12.195Z,32.57
2023-05-21T12:55:12.213Z,32.69
2023-05-21T12:56:12.235Z,32.67
2023-05-21T12:57:12.215Z,32.87
2023-05-21T12:58:12.200Z,32.89
2023-05-21T12:59:12.209Z,32.98
2023-05-21T13:00:12.237Z,33.12
2023-05-21T13:01:12.260Z,33.29
2023-05-21T13:02:12.224Z,33.41
2023-05-21T13:03:12.364Z,33.53
2023-05-21T13:04:12.285Z,33.63
2023-05-21T13:05:12.240Z,33.75
2023-05-21T13:06:12.252Z,33.92
2023-05-21T13:07:12.253Z,34.15
2023-05-21T13:08:12.244Z,34.30
2023-05-21T13:09:12.278Z,34.40
2023-05-21T13:10:12.269Z,34.52
2023-05-21T13:11:12.308Z,34.74
2023-05-21T13:12:12.293Z,34.72
2023-05-21T13:13:12.272Z,34.89
2023-05-21T13:14:12.282Z,34.97
2023-05-21T13:15:12.319Z,35.09
2023-05-21T13:16:12.358Z,35.33
2023-05-21T13:17:12.337Z,35.34
2023-05-21T13:18:12.418Z,35.39
2023-05-21T13:19:12.352Z,35.57
2023-05-21T13:20:12.594Z,35.61
2023-05-21T13:21:12.333Z,35.62
2023-05-21T13:22:12.345Z,35.67
2023-05-21T13:23:12.345Z,35.68
2023-05-21T13:24:12.364Z,35.65
2023-05-21T13:25:12.373Z,35.58
2023-05-21T13:26:12.360Z,35.67
2023-05-21T13:27:12.399Z,35.62
2023-05-21T13:28:12.374Z,35.62
2023-05-21T13:29:12.381Z,35.62
2023-05-21T13:30:12.435Z,35.57
2023-05-21T13:31:12.401Z,35.50
2023-05-21T13:32:12.483Z,35.38
2023-05-21T13:33:12.521Z,35.40
2023-05-21T13:34:12.413Z,35.35
2023-05-21T13:35:12.614Z,35.35
2023-05-21T13:36:12.470Z,35.47
2023-05-21T13:37:12.442Z,35.46
2023-05-21T13:38:12.446Z,35.47
2023-05-21T13:39:12.451Z,35.53
2023-05-21T13:40:12.472Z,35.57
2023-05-21T13:41:12.522Z,35.49
2023-05-21T13:42:12.473Z,35.52
2023-05-21T13:43:12.470Z,35.53
2023-05-21T13:44:12.514Z,35.49
2023-05-21T13:45:12.491Z,35.40
2023-05-21T13:46:12.558Z,35.30
2023-05-21T13:47:12.508Z,35.31
2023-05-21T13:48:12.551Z,35.23
2023-05-21T13:49:12.533Z,35.20
2023-05-21T13:50:12.524Z,35.04
2023-05-21T13:51:15.690Z,34.94
2023-05-21T13:52:12.540Z,34.94
2023-05-21T13:53:12.547Z,34.87
2023-05-21T13:54:12.546Z,34.75
2023-05-21T13:55:12.568Z,34.63
2023-05-21T13:56:12.589Z,34.52
2023-05-21T13:57:12.577Z,34.40
2023-05-21T13:58:12.568Z,34.24
2023-05-21T13:59:12.574Z,34.24
2023-05-21T14:00:12.693Z,34.11
2023-05-21T14:01:12.679Z,34.11
2023-05-21T14:02:12.644Z,34.05
2023-05-21T14:03:12.642Z,34.00
2023-05-21T14:04:12.601Z,33.85
2023-05-21T14:05:12.668Z,33.83
2023-05-21T14:06:12.631Z,33.71
2023-05-21T14:07:12.625Z,33.63
2023-05-21T14:08:12.614Z,33.52
2023-05-21T14:09:12.612Z,33.55
2023-05-21T14:10:12.649Z,33.43
2023-05-21T14:11:12.622Z,33.39
2023-05-21T14:13:19.431Z,33.21
2023-05-21T14:14:12.641Z,33.03
2023-05-21T14:15:12.648Z,33.03
2023-05-21T14:16:12.723Z,33.02
2023-05-21T14:17:12.711Z,32.87
2023-05-21T14:18:12.749Z,32.75
2023-05-21T14:19:12.694Z,32.76
2023-05-21T14:20:12.771Z,32.76
2023-05-21T14:21:12.668Z,32.67
2023-05-21T14:22:12.685Z,32.52
2023-05-21T14:23:12.675Z,32.52
2023-05-21T14:24:12.686Z,32.27
2023-05-21T14:25:12.688Z,32.25
2023-05-21T14:26:12.689Z,32.13
2023-05-21T14:27:15.267Z,32.12
2023-05-21T14:28:12.703Z,32.12
2023-05-21T14:29:12.720Z,32.00
2023-05-21T14:30:12.716Z,31.94
2023-05-21T14:31:12.707Z,31.86
2023-05-21T14:32:12.729Z,31.74
2023-05-21T14:33:12.794Z,31.81
2023-05-21T14:34:12.763Z,31.68
2023-05-21T14:35:12.769Z,31.53
2023-05-21T14:36:12.741Z,31.56
2023-05-21T14:37:12.732Z,31.56
2023-05-21T14:38:12.734Z,31.56
2023-05-21T14:39:12.737Z,31.47
2023-05-21T14:40:12.736Z,31.38
2023-05-21T14:41:12.748Z,31.45
2023-05-21T14:42:12.749Z,31.41
2023-05-21T14:43:12.740Z,31.28
2023-05-21T14:44:12.778Z,31.23
2023-05-21T14:45:19.096Z,31.33
2023-05-21T14:46:12.793Z,31.28
2023-05-21T14:47:12.751Z,31.26
2023-05-21T14:48:12.760Z,31.28
2023-05-21T14:49:12.754Z,31.26
2023-05-21T14:50:12.791Z,31.31
2023-05-21T14:51:12.756Z,31.25
2023-05-21T14:52:12.778Z,31.21
2023-05-21T14:53:12.807Z,31.23
2023-05-21T14:54:12.770Z,31.21
2023-05-21T14:55:12.772Z,31.22
2023-05-21T14:56:12.787Z,31.19
2023-05-21T14:57:12.802Z,31.18
2023-05-21T14:58:12.792Z,31.15
2023-05-21T14:59:12.800Z,31.07
2023-05-21T15:00:12.785Z,31.10
2023-05-21T15:01:12.934Z,31.15
2023-05-21T15:02:12.862Z,31.12
2023-05-21T15:04:12.979Z,31.07
2023-05-21T15:05:12.792Z,31.06
2023-05-21T15:06:12.796Z,31.08
2023-05-21T15:07:12.819Z,31.03
2023-05-21T15:08:12.818Z,31.01
2023-05-21T15:09:12.807Z,31.01
2023-05-21T15:10:12.835Z,30.85
2023-05-21T15:11:12.806Z,30.96
2023-05-21T15:12:12.810Z,30.88
2023-05-21T15:13:12.815Z,30.96
2023-05-21T15:14:12.821Z,30.88
2023-05-21T15:15:12.846Z,30.99
2023-05-21T15:16:12.876Z,30.85
2023-05-21T15:17:12.839Z,30.86
2023-05-21T15:18:12.882Z,30.91
2023-05-21T15:19:12.889Z,30.82
2023-05-21T15:20:12.844Z,30.78
2023-05-21T15:21:12.845Z,30.84
2023-05-21T15:22:12.842Z,30.71
2023-05-21T15:23:17.460Z,30.66
2023-05-21T15:24:12.851Z,30.66
2023-05-21T15:25:12.870Z,30.70
2023-05-21T15:26:12.855Z,30.69
2023-05-21T15:27:12.873Z,30.63
2023-05-21T15:28:13.049Z,30.59
2023-05-21T15:29:12.893Z,30.56
2023-05-21T15:30:12.863Z,30.54
2023-05-21T15:31:12.880Z,30.49
2023-05-21T15:32:12.890Z,30.48
2023-05-21T15:33:12.900Z,30.56
2023-05-21T15:34:12.892Z,30.48
2023-05-21T15:35:12.943Z,30.35
2023-05-21T15:36:12.877Z,30.40
2023-05-21T15:37:12.887Z,30.34
2023-05-21T15:38:12.881Z,30.31
2023-05-21T15:39:12.882Z,30.32
2023-05-21T15:40:12.901Z,30.32
2023-05-21T15:41:12.884Z,30.31
2023-05-21T15:42:12.894Z,30.25
2023-05-21T15:43:12.905Z,30.14
2023-05-21T15:44:12.890Z,30.24
2023-05-21T15:45:12.939Z,30.13
2023-05-21T15:46:12.954Z,30.11
2023-05-21T15:47:12.906Z,30.04
2023-05-21T15:48:12.951Z,30.00
2023-05-21T15:49:12.929Z,30.02
2023-05-21T15:50:12.924Z,29.97
2023-05-21T15:51:12.913Z,29.91
2023-05-21T15:52:12.906Z,29.94
2023-05-21T15:53:12.943Z,29.92
2023-05-21T15:54:12.932Z,29.91
2023-05-21T15:55:12.929Z,29.88
2023-05-21T15:57:12.913Z,29.82
2023-05-21T15:58:12.944Z,29.72
2023-05-21T15:59:12.926Z,29.73
2023-05-21T16:00:12.943Z,29.75
2023-05-21T16:01:12.961Z,29.72
2023-05-21T16:02:12.927Z,29.66
2023-05-21T16:03:13.060Z,29.61
2023-05-21T16:04:12.990Z,29.61
2023-05-21T16:05:12.971Z,29.57
2023-05-21T16:06:12.960Z,29.58
2023-05-21T16:07:12.941Z,29.55
2023-05-21T16:08:12.945Z,29.52
2023-05-21T16:09:12.946Z,29.52
2023-05-21T16:10:12.976Z,29.54
2023-05-21T16:11:12.957Z,29.51
2023-05-21T16:12:12.984Z,29.39
2023-05-21T16:13:12.951Z,29.42
2023-05-21T16:14:12.948Z,29.38
2023-05-21T16:15:12.948Z,29.35
2023-05-21T16:16:13.010Z,29.35
2023-05-21T16:28:21.102Z,28.91
2023-05-21T16:29:22.118Z,28.95
2023-05-21T16:30:20.908Z,28.86
2023-05-21T16:31:20.977Z,28.92
2023-05-21T16:32:20.995Z,28.86
2023-05-21T16:33:20.935Z,28.78
2023-05-21T16:34:20.906Z,28.85
2023-05-21T16:35:20.933Z,28.70
2023-05-21T16:36:20.919Z,28.73
2023-05-21T16:37:20.930Z,28.68
2023-05-21T16:38:20.906Z,28.64
2023-05-21T16:39:20.899Z,28.57
2023-05-21T16:40:20.918Z,28.68
2023-05-21T16:41:20.934Z,28.73
2023-05-21T16:42:20.905Z,28.61
2023-05-21T16:43:20.918Z,28.57
2023-05-21T16:44:21.032Z,28.58
2023-05-21T16:45:20.929Z,28.55
2023-05-21T16:46:20.953Z,28.55
2023-05-21T16:47:20.964Z,28.53
2023-05-21T16:48:20.920Z,28.48
2023-05-21T16:49:20.908Z,28.51
2023-05-21T16:50:20.909Z,28.53
2023-05-21T16:51:20.947Z,28.45
2023-05-21T16:52:20.968Z,28.46
2023-05-21T16:53:20.918Z,28.48
2023-05-21T16:54:20.949Z,28.51
2023-05-21T16:55:20.906Z,28.43
2023-05-21T16:56:20.923Z,28.42
2023-05-21T16:57:20.939Z,28.43
2023-05-21T16:58:20.959Z,28.38
2023-05-21T16:59:20.938Z,28.38
2023-05-21T17:00:20.945Z,28.41
2023-05-21T17:01:21.036Z,28.39
2023-05-21T17:02:21.107Z,28.36
2023-05-21T17:03:21.045Z,28.36
2023-05-21T17:04:20.924Z,28.36
2023-05-21T17:05:20.943Z,28.33
2023-05-21T17:06:20.939Z,28.36
2023-05-21T17:07:20.931Z,28.36
2023-05-21T17:08:20.919Z,28.38
2023-05-21T17:09:20.930Z,28.28
2023-05-21T17:10:20.930Z,28.33
2023-05-21T17:11:20.965Z,28.31
2023-05-21T17:12:20.952Z,28.24
2023-05-21T17:13:22.565Z,28.26
2023-05-21T17:14:33.171Z,28.21
2023-05-21T17:15:20.960Z,28.28
2023-05-21T17:16:21.002Z,28.36
2023-05-21T17:17:20.933Z,28.31
2023-05-21T17:18:20.946Z,28.14
2023-05-21T17:19:21.029Z,28.18
2023-05-21T17:20:20.937Z,28.21
2023-05-21T17:21:20.957Z,28.17
2023-05-21T17:22:20.953Z,28.08
2023-05-21T17:23:21.001Z,28.01
2023-05-21T17:24:20.951Z,27.99
2023-05-21T17:25:20.940Z,28.03
2023-05-21T17:26:20.960Z,28.02
2023-05-21T17:27:20.945Z,28.06
2023-05-21T17:28:20.960Z,27.99
2023-05-21T17:29:20.951Z,27.99
2023-05-21T17:30:20.954Z,27.94
2023-05-21T17:31:20.991Z,27.98
2023-05-21T17:32:20.970Z,27.89